sensor_id;sensor_type;location;lat;lon;timestamp;P1;durP1;ratioP1;P2;durP2;ratioP2
17524;SDS011;40431;52.198;9.902;2023-08-07T00:02:21;7.93;;;7.30;;
17524;SDS011;40431;52.198;9.902;2023-08-07T00:04:49;7.30;;;6.80;;
17524;SDS011;40431;52.198;9.902;2023-08-07T00:07:15;7.43;;;6.73;;
17524;SDS011;40431;52.198;9.902;2023-08-07T00:09:43;8.23;;;7.00;;
17524;SDS011;40431;52.198;9.902;2023-08-07T00:12:09;8.40;;;7.70;;
17524;SDS011;40431;52.198;9.902;2023-08-07T00:14:35;8.73;;;8.00;;
17524;SDS011;40431;52.198;9.902;2023-08-07T00:17:02;8.10;;;7.40;;
17524;SDS011;40431;52.198;9.902;2023-08-07T00:19:29;9.83;;;9.07;;
17524;SDS011;40431;52.198;9.902;2023-08-07T00:21:57;9.17;;;8.50;;
17524;SDS011;40431;52.198;9.902;2023-08-07T00:24:23;8.03;;;7.43;;
17524;SDS011;40431;52.198;9.902;2023-08-07T00:26:49;9.53;;;8.63;;
17524;SDS011;40431;52.198;9.902;2023-08-07T00:29:16;9.80;;;9.10;;
17524;SDS011;40431;52.198;9.902;2023-08-07T00:31:42;8.97;;;8.10;;
17524;SDS011;40431;52.198;9.902;2023-08-07T00:34:09;9.53;;;8.73;;
17524;SDS011;40431;52.198;9.902;2023-08-07T00:36:35;8.83;;;8.03;;
17524;SDS011;40431;52.198;9.902;2023-08-07T00:39:03;8.83;;;8.23;;
17524;SDS011;40431;52.198;9.902;2023-08-07T00:41:29;10.47;;;9.47;;
17524;SDS011;40431;52.198;9.902;2023-08-07T00:43:56;9.17;;;8.47;;
17524;SDS011;40431;52.198;9.902;2023-08-07T00:46:22;8.77;;;8.07;;
17524;SDS011;40431;52.198;9.902;2023-08-07T00:48:49;9.03;;;8.33;;
17524;SDS011;40431;52.198;9.902;2023-08-07T00:51:18;9.87;;;9.17;;
17524;SDS011;40431;52.198;9.902;2023-08-07T00:53:45;9.43;;;8.53;;
17524;SDS011;40431;52.198;9.902;2023-08-07T00:56:13;8.83;;;8.23;;
17524;SDS011;40431;52.198;9.902;2023-08-07T00:58:40;9.23;;;8.47;;
17524;SDS011;40431;52.198;9.902;2023-08-07T01:01:06;9.50;;;8.57;;
17524;SDS011;40431;52.198;9.902;2023-08-07T01:03:33;8.80;;;8.20;;
17524;SDS011;40431;52.198;9.902;2023-08-07T01:06:00;8.70;;;7.90;;
17524;SDS011;40431;52.198;9.902;2023-08-07T01:08:27;8.50;;;7.90;;
17524;SDS011;40431;52.198;9.902;2023-08-07T01:10:59;8.00;;;7.40;;
17524;SDS011;40431;52.198;9.902;2023-08-07T01:13:40;9.40;;;8.60;;
17524;SDS011;40431;52.198;9.902;2023-08-07T01:16:17;8.60;;;7.90;;
17524;SDS011;40431;52.198;9.902;2023-08-07T01:18:46;8.80;;;8.20;;
17524;SDS011;40431;52.198;9.902;2023-08-07T01:21:18;8.30;;;7.70;;
17524;SDS011;40431;52.198;9.902;2023-08-07T01:23:46;7.50;;;6.90;;
17524;SDS011;40431;52.198;9.902;2023-08-07T01:26:17;8.53;;;7.73;;
17524;SDS011;40431;52.198;9.902;2023-08-07T01:28:46;9.23;;;8.33;;
17524;SDS011;40431;52.198;9.902;2023-08-07T01:31:20;7.97;;;7.37;;
17524;SDS011;40431;52.198;9.902;2023-08-07T01:33:51;8.57;;;7.87;;
17524;SDS011;40431;52.198;9.902;2023-08-07T01:36:24;8.93;;;8.00;;
17524;SDS011;40431;52.198;9.902;2023-08-07T01:38:55;9.23;;;8.43;;
17524;SDS011;40431;52.198;9.902;2023-08-07T01:41:23;8.57;;;7.87;;
17524;SDS011;40431;52.198;9.902;2023-08-07T01:43:49;9.30;;;8.50;;
17524;SDS011;40431;52.198;9.902;2023-08-07T01:46:17;8.27;;;7.47;;
17524;SDS011;40431;52.198;9.902;2023-08-07T01:48:43;8.27;;;7.57;;
17524;SDS011;40431;52.198;9.902;2023-08-07T01:51:10;7.87;;;7.17;;
17524;SDS011;40431;52.198;9.902;2023-08-07T01:53:36;7.63;;;6.70;;
17524;SDS011;40431;52.198;9.902;2023-08-07T01:56:04;7.07;;;6.40;;
17524;SDS011;40431;52.198;9.902;2023-08-07T01:58:30;8.97;;;7.00;;
17524;SDS011;40431;52.198;9.902;2023-08-07T02:00:56;7.40;;;6.70;;
17524;SDS011;40431;52.198;9.902;2023-08-07T02:03:23;7.10;;;6.53;;
17524;SDS011;40431;52.198;9.902;2023-08-07T02:05:49;7.17;;;6.47;;
17524;SDS011;40431;52.198;9.902;2023-08-07T02:08:16;7.57;;;7.00;;
17524;SDS011;40431;52.198;9.902;2023-08-07T02:10:42;7.20;;;6.60;;
17524;SDS011;40431;52.198;9.902;2023-08-07T02:13:10;7.73;;;7.00;;
17524;SDS011;40431;52.198;9.902;2023-08-07T02:15:36;6.17;;;5.67;;
17524;SDS011;40431;52.198;9.902;2023-08-07T02:18:02;6.80;;;6.30;;
17524;SDS011;40431;52.198;9.902;2023-08-07T02:20:29;7.47;;;6.67;;
17524;SDS011;40431;52.198;9.902;2023-08-07T02:22:55;7.10;;;5.63;;
17524;SDS011;40431;52.198;9.902;2023-08-07T02:25:21;6.47;;;5.93;;
17524;SDS011;40431;52.198;9.902;2023-08-07T02:27:48;7.23;;;6.30;;
17524;SDS011;40431;52.198;9.902;2023-08-07T02:30:16;6.20;;;5.63;;
17524;SDS011;40431;52.198;9.902;2023-08-07T02:32:43;5.73;;;5.33;;
17524;SDS011;40431;52.198;9.902;2023-08-07T02:35:11;6.97;;;5.50;;
17524;SDS011;40431;52.198;9.902;2023-08-07T02:37:37;6.63;;;6.10;;
17524;SDS011;40431;52.198;9.902;2023-08-07T02:40:04;6.03;;;5.50;;
17524;SDS011;40431;52.198;9.902;2023-08-07T02:42:31;6.43;;;5.83;;
17524;SDS011;40431;52.198;9.902;2023-08-07T02:44:57;5.83;;;5.27;;
17524;SDS011;40431;52.198;9.902;2023-08-07T02:47:25;10.07;;;6.00;;
17524;SDS011;40431;52.198;9.902;2023-08-07T02:49:51;6.40;;;5.80;;
17524;SDS011;40431;52.198;9.902;2023-08-07T02:52:18;8.33;;;6.63;;
17524;SDS011;40431;52.198;9.902;2023-08-07T02:54:44;6.93;;;6.30;;
17524;SDS011;40431;52.198;9.902;2023-08-07T02:57:11;6.93;;;6.30;;
17524;SDS011;40431;52.198;9.902;2023-08-07T02:59:37;6.83;;;6.20;;
17524;SDS011;40431;52.198;9.902;2023-08-07T03:02:04;7.50;;;6.90;;
17524;SDS011;40431;52.198;9.902;2023-08-07T03:04:32;7.37;;;6.60;;
17524;SDS011;40431;52.198;9.902;2023-08-07T03:06:59;9.80;;;6.57;;
17524;SDS011;40431;52.198;9.902;2023-08-07T03:09:25;7.17;;;6.47;;
17524;SDS011;40431;52.198;9.902;2023-08-07T03:11:52;5.90;;;5.40;;
17524;SDS011;40431;52.198;9.902;2023-08-07T03:14:18;8.50;;;6.57;;
17524;SDS011;40431;52.198;9.902;2023-08-07T03:16:45;6.70;;;6.10;;
17524;SDS011;40431;52.198;9.902;2023-08-07T03:19:11;6.00;;;5.50;;
17524;SDS011;40431;52.198;9.902;2023-08-07T03:21:39;6.63;;;5.37;;
17524;SDS011;40431;52.198;9.902;2023-08-07T03:24:05;6.87;;;5.27;;
17524;SDS011;40431;52.198;9.902;2023-08-07T03:26:33;5.77;;;5.27;;
17524;SDS011;40431;52.198;9.902;2023-08-07T03:28:59;7.93;;;5.43;;
17524;SDS011;40431;52.198;9.902;2023-08-07T03:31:25;5.17;;;4.67;;
17524;SDS011;40431;52.198;9.902;2023-08-07T03:33:52;6.23;;;5.57;;
17524;SDS011;40431;52.198;9.902;2023-08-07T03:36:18;6.27;;;5.63;;
17524;SDS011;40431;52.198;9.902;2023-08-07T03:38:46;5.50;;;4.83;;
17524;SDS011;40431;52.198;9.902;2023-08-07T03:41:12;5.90;;;5.30;;
17524;SDS011;40431;52.198;9.902;2023-08-07T03:43:39;7.43;;;5.57;;
17524;SDS011;40431;52.198;9.902;2023-08-07T03:46:05;11.10;;;6.13;;
17524;SDS011;40431;52.198;9.902;2023-08-07T03:48:31;8.17;;;6.70;;
17524;SDS011;40431;52.198;9.902;2023-08-07T03:51:01;6.13;;;5.53;;
17524;SDS011;40431;52.198;9.902;2023-08-07T03:53:29;6.13;;;5.43;;
17524;SDS011;40431;52.198;9.902;2023-08-07T03:55:56;6.03;;;5.43;;
17524;SDS011;40431;52.198;9.902;2023-08-07T03:58:23;6.83;;;6.33;;
17524;SDS011;40431;52.198;9.902;2023-08-07T04:00:50;5.67;;;5.17;;
17524;SDS011;40431;52.198;9.902;2023-08-07T04:03:16;6.83;;;5.70;;
17524;SDS011;40431;52.198;9.902;2023-08-07T04:05:43;6.77;;;6.00;;
17524;SDS011;40431;52.198;9.902;2023-08-07T04:08:09;6.17;;;5.50;;
17524;SDS011;40431;52.198;9.902;2023-08-07T04:10:35;6.67;;;6.13;;
17524;SDS011;40431;52.198;9.902;2023-08-07T04:13:03;7.37;;;6.70;;
17524;SDS011;40431;52.198;9.902;2023-08-07T04:15:29;7.73;;;7.13;;
17524;SDS011;40431;52.198;9.902;2023-08-07T04:17:56;7.87;;;7.10;;
17524;SDS011;40431;52.198;9.902;2023-08-07T04:20:22;7.50;;;6.80;;
17524;SDS011;40431;52.198;9.902;2023-08-07T04:22:49;7.83;;;7.13;;
17524;SDS011;40431;52.198;9.902;2023-08-07T04:25:15;8.83;;;7.70;;
17524;SDS011;40431;52.198;9.902;2023-08-07T04:27:42;8.33;;;7.53;;
17524;SDS011;40431;52.198;9.902;2023-08-07T04:30:10;8.03;;;7.40;;
17524;SDS011;40431;52.198;9.902;2023-08-07T04:32:37;7.57;;;6.87;;
17524;SDS011;40431;52.198;9.902;2023-08-07T04:35:04;9.23;;;7.73;;
17524;SDS011;40431;52.198;9.902;2023-08-07T04:37:31;6.93;;;6.33;;
17524;SDS011;40431;52.198;9.902;2023-08-07T04:39:57;8.57;;;6.60;;
17524;SDS011;40431;52.198;9.902;2023-08-07T04:42:25;7.17;;;6.57;;
17524;SDS011;40431;52.198;9.902;2023-08-07T04:44:52;7.43;;;6.67;;
17524;SDS011;40431;52.198;9.902;2023-08-07T04:47:20;6.90;;;6.30;;
17524;SDS011;40431;52.198;9.902;2023-08-07T04:49:46;6.77;;;6.07;;
17524;SDS011;40431;52.198;9.902;2023-08-07T04:52:13;6.73;;;6.23;;
17524;SDS011;40431;52.198;9.902;2023-08-07T04:54:39;7.13;;;6.63;;
17524;SDS011;40431;52.198;9.902;2023-08-07T04:57:05;6.37;;;5.90;;
17524;SDS011;40431;52.198;9.902;2023-08-07T04:59:32;5.87;;;5.43;;
17524;SDS011;40431;52.198;9.902;2023-08-07T05:02:00;6.00;;;5.47;;
17524;SDS011;40431;52.198;9.902;2023-08-07T05:04:28;5.83;;;5.43;;
17524;SDS011;40431;52.198;9.902;2023-08-07T05:06:54;6.50;;;5.60;;
17524;SDS011;40431;52.198;9.902;2023-08-07T05:09:21;8.57;;;5.87;;
17524;SDS011;40431;52.198;9.902;2023-08-07T05:11:47;5.63;;;5.13;;
17524;SDS011;40431;52.198;9.902;2023-08-07T05:14:14;6.00;;;5.50;;
17524;SDS011;40431;52.198;9.902;2023-08-07T05:16:40;7.00;;;6.37;;
17524;SDS011;40431;52.198;9.902;2023-08-07T05:19:06;7.67;;;5.73;;
17524;SDS011;40431;52.198;9.902;2023-08-07T05:21:34;6.43;;;5.83;;
17524;SDS011;40431;52.198;9.902;2023-08-07T05:24:01;5.53;;;5.20;;
17524;SDS011;40431;52.198;9.902;2023-08-07T05:26:27;6.53;;;5.93;;
17524;SDS011;40431;52.198;9.902;2023-08-07T05:28:54;7.00;;;6.40;;
17524;SDS011;40431;52.198;9.902;2023-08-07T05:31:23;6.57;;;5.97;;
17524;SDS011;40431;52.198;9.902;2023-08-07T05:33:49;6.07;;;5.50;;
17524;SDS011;40431;52.198;9.902;2023-08-07T05:36:16;6.17;;;5.50;;
17524;SDS011;40431;52.198;9.902;2023-08-07T05:38:43;7.17;;;6.57;;
17524;SDS011;40431;52.198;9.902;2023-08-07T05:41:10;6.87;;;6.40;;
17524;SDS011;40431;52.198;9.902;2023-08-07T05:43:36;6.77;;;6.23;;
17524;SDS011;40431;52.198;9.902;2023-08-07T05:46:03;6.60;;;6.00;;
17524;SDS011;40431;52.198;9.902;2023-08-07T05:48:29;11.53;;;6.00;;
17524;SDS011;40431;52.198;9.902;2023-08-07T05:50:56;7.27;;;6.57;;
17524;SDS011;40431;52.198;9.902;2023-08-07T05:53:22;6.53;;;5.83;;
17524;SDS011;40431;52.198;9.902;2023-08-07T05:55:50;7.23;;;6.23;;
17524;SDS011;40431;52.198;9.902;2023-08-07T05:58:16;5.93;;;5.53;;
17524;SDS011;40431;52.198;9.902;2023-08-07T06:00:43;6.20;;;5.70;;
17524;SDS011;40431;52.198;9.902;2023-08-07T06:03:11;5.60;;;5.20;;
17524;SDS011;40431;52.198;9.902;2023-08-07T06:05:37;6.20;;;5.60;;
17524;SDS011;40431;52.198;9.902;2023-08-07T06:08:04;5.57;;;4.87;;
17524;SDS011;40431;52.198;9.902;2023-08-07T06:10:30;5.00;;;4.60;;
17524;SDS011;40431;52.198;9.902;2023-08-07T06:12:58;4.33;;;3.93;;
17524;SDS011;40431;52.198;9.902;2023-08-07T06:15:24;5.30;;;4.80;;
17524;SDS011;40431;52.198;9.902;2023-08-07T06:17:52;4.63;;;4.20;;
17524;SDS011;40431;52.198;9.902;2023-08-07T06:20:18;3.63;;;3.33;;
17524;SDS011;40431;52.198;9.902;2023-08-07T06:22:45;4.83;;;4.07;;
17524;SDS011;40431;52.198;9.902;2023-08-07T06:25:11;4.37;;;3.97;;
17524;SDS011;40431;52.198;9.902;2023-08-07T06:27:38;4.97;;;4.03;;
17524;SDS011;40431;52.198;9.902;2023-08-07T06:30:06;4.50;;;4.10;;
17524;SDS011;40431;52.198;9.902;2023-08-07T06:32:33;4.10;;;3.50;;
17524;SDS011;40431;52.198;9.902;2023-08-07T06:35:00;4.53;;;4.13;;
17524;SDS011;40431;52.198;9.902;2023-08-07T06:37:27;4.20;;;3.80;;
17524;SDS011;40431;52.198;9.902;2023-08-07T06:39:53;3.83;;;3.50;;
17524;SDS011;40431;52.198;9.902;2023-08-07T06:42:19;4.20;;;3.60;;
17524;SDS011;40431;52.198;9.902;2023-08-07T06:44:46;4.90;;;3.53;;
17524;SDS011;40431;52.198;9.902;2023-08-07T06:47:14;3.33;;;3.03;;
17524;SDS011;40431;52.198;9.902;2023-08-07T06:49:40;3.43;;;3.17;;
17524;SDS011;40431;52.198;9.902;2023-08-07T06:52:07;4.23;;;3.83;;
17524;SDS011;40431;52.198;9.902;2023-08-07T06:54:33;4.10;;;3.20;;
17524;SDS011;40431;52.198;9.902;2023-08-07T06:56:59;4.80;;;3.50;;
17524;SDS011;40431;52.198;9.902;2023-08-07T06:59:26;3.47;;;3.17;;
17524;SDS011;40431;52.198;9.902;2023-08-07T07:01:52;3.70;;;2.53;;
17524;SDS011;40431;52.198;9.902;2023-08-07T07:04:20;3.17;;;2.87;;
17524;SDS011;40431;52.198;9.902;2023-08-07T07:06:46;3.00;;;2.80;;
17524;SDS011;40431;52.198;9.902;2023-08-07T07:09:13;3.27;;;2.77;;
17524;SDS011;40431;52.198;9.902;2023-08-07T07:11:41;3.73;;;3.07;;
17524;SDS011;40431;52.198;9.902;2023-08-07T07:14:08;2.47;;;2.03;;
17524;SDS011;40431;52.198;9.902;2023-08-07T07:16:34;4.30;;;2.73;;
17524;SDS011;40431;52.198;9.902;2023-08-07T07:19:02;3.80;;;2.70;;
17524;SDS011;40431;52.198;9.902;2023-08-07T07:21:30;3.13;;;2.83;;
17524;SDS011;40431;52.198;9.902;2023-08-07T07:23:57;4.53;;;2.60;;
17524;SDS011;40431;52.198;9.902;2023-08-07T07:26:23;3.63;;;2.33;;
17524;SDS011;40431;52.198;9.902;2023-08-07T07:28:50;3.07;;;2.80;;
17524;SDS011;40431;52.198;9.902;2023-08-07T07:31:16;4.70;;;3.33;;
17524;SDS011;40431;52.198;9.902;2023-08-07T07:33:43;2.80;;;2.60;;
17524;SDS011;40431;52.198;9.902;2023-08-07T07:36:13;3.23;;;2.93;;
17524;SDS011;40431;52.198;9.902;2023-08-07T07:38:42;2.90;;;2.70;;
17524;SDS011;40431;52.198;9.902;2023-08-07T07:41:08;4.20;;;3.10;;
17524;SDS011;40431;52.198;9.902;2023-08-07T07:43:36;4.23;;;3.10;;
17524;SDS011;40431;52.198;9.902;2023-08-07T07:46:03;2.97;;;2.67;;
17524;SDS011;40431;52.198;9.902;2023-08-07T07:48:29;3.77;;;3.50;;
17524;SDS011;40431;52.198;9.902;2023-08-07T07:50:57;4.90;;;3.20;;
17524;SDS011;40431;52.198;9.902;2023-08-07T07:53:24;3.70;;;3.10;;
17524;SDS011;40431;52.198;9.902;2023-08-07T07:55:52;3.27;;;2.97;;
17524;SDS011;40431;52.198;9.902;2023-08-07T07:58:19;4.00;;;3.20;;
17524;SDS011;40431;52.198;9.902;2023-08-07T08:00:45;3.60;;;3.30;;
17524;SDS011;40431;52.198;9.902;2023-08-07T08:03:12;5.83;;;3.63;;
17524;SDS011;40431;52.198;9.902;2023-08-07T08:05:38;3.63;;;3.33;;
17524;SDS011;40431;52.198;9.902;2023-08-07T08:08:05;3.80;;;3.50;;
17524;SDS011;40431;52.198;9.902;2023-08-07T08:10:32;4.07;;;3.47;;
17524;SDS011;40431;52.198;9.902;2023-08-07T08:13:01;3.87;;;3.57;;
17524;SDS011;40431;52.198;9.902;2023-08-07T08:15:28;4.37;;;3.97;;
17524;SDS011;40431;52.198;9.902;2023-08-07T08:17:55;3.53;;;3.23;;
17524;SDS011;40431;52.198;9.902;2023-08-07T08:20:21;5.47;;;4.37;;
17524;SDS011;40431;52.198;9.902;2023-08-07T08:22:48;4.07;;;3.77;;
17524;SDS011;40431;52.198;9.902;2023-08-07T08:25:14;4.10;;;3.80;;
17524;SDS011;40431;52.198;9.902;2023-08-07T08:27:42;3.60;;;3.20;;
17524;SDS011;40431;52.198;9.902;2023-08-07T08:30:10;3.90;;;3.50;;
17524;SDS011;40431;52.198;9.902;2023-08-07T08:32:37;4.40;;;3.63;;
17524;SDS011;40431;52.198;9.902;2023-08-07T08:35:04;3.60;;;3.40;;
17524;SDS011;40431;52.198;9.902;2023-08-07T08:37:31;3.33;;;3.03;;
17524;SDS011;40431;52.198;9.902;2023-08-07T08:39:57;2.67;;;2.47;;
17524;SDS011;40431;52.198;9.902;2023-08-07T08:42:24;3.90;;;3.13;;
17524;SDS011;40431;52.198;9.902;2023-08-07T08:44:51;2.70;;;2.50;;
17524;SDS011;40431;52.198;9.902;2023-08-07T08:47:19;2.70;;;2.50;;
17524;SDS011;40431;52.198;9.902;2023-08-07T08:49:47;3.00;;;2.30;;
17524;SDS011;40431;52.198;9.902;2023-08-07T08:52:16;2.60;;;2.40;;
17524;SDS011;40431;52.198;9.902;2023-08-07T08:54:44;2.80;;;2.60;;
17524;SDS011;40431;52.198;9.902;2023-08-07T08:57:11;3.50;;;2.60;;
17524;SDS011;40431;52.198;9.902;2023-08-07T08:59:37;3.37;;;2.97;;
17524;SDS011;40431;52.198;9.902;2023-08-07T09:02:04;3.20;;;2.50;;
17524;SDS011;40431;52.198;9.902;2023-08-07T09:04:32;2.93;;;2.40;;
17524;SDS011;40431;52.198;9.902;2023-08-07T09:06:59;2.67;;;2.47;;
17524;SDS011;40431;52.198;9.902;2023-08-07T09:09:26;3.00;;;2.80;;
17524;SDS011;40431;52.198;9.902;2023-08-07T09:11:53;3.63;;;3.07;;
17524;SDS011;40431;52.198;9.902;2023-08-07T09:14:24;2.77;;;2.43;;
17524;SDS011;40431;52.198;9.902;2023-08-07T09:16:55;3.63;;;2.70;;
17524;SDS011;40431;52.198;9.902;2023-08-07T09:19:24;3.37;;;3.10;;
17524;SDS011;40431;52.198;9.902;2023-08-07T09:21:53;3.50;;;2.63;;
17524;SDS011;40431;52.198;9.902;2023-08-07T09:24:19;2.83;;;2.37;;
17524;SDS011;40431;52.198;9.902;2023-08-07T09:26:47;3.83;;;2.13;;
17524;SDS011;40431;52.198;9.902;2023-08-07T09:29:14;4.00;;;2.10;;
17524;SDS011;40431;52.198;9.902;2023-08-07T09:31:42;3.20;;;2.20;;
17524;SDS011;40431;52.198;9.902;2023-08-07T09:34:10;2.80;;;2.47;;
17524;SDS011;40431;52.198;9.902;2023-08-07T09:36:38;3.20;;;2.20;;
17524;SDS011;40431;52.198;9.902;2023-08-07T09:39:06;3.23;;;2.23;;
17524;SDS011;40431;52.198;9.902;2023-08-07T09:41:32;3.17;;;2.03;;
17524;SDS011;40431;52.198;9.902;2023-08-07T09:44:00;5.33;;;1.87;;
17524;SDS011;40431;52.198;9.902;2023-08-07T09:46:40;2.67;;;2.00;;
17524;SDS011;40431;52.198;9.902;2023-08-07T09:49:07;2.90;;;1.93;;
17524;SDS011;40431;52.198;9.902;2023-08-07T09:51:40;3.33;;;2.10;;
17524;SDS011;40431;52.198;9.902;2023-08-07T09:54:09;3.77;;;2.13;;
17524;SDS011;40431;52.198;9.902;2023-08-07T09:56:36;7.03;;;2.37;;
17524;SDS011;40431;52.198;9.902;2023-08-07T09:59:03;4.90;;;2.07;;
17524;SDS011;40431;52.198;9.902;2023-08-07T10:01:29;3.23;;;2.33;;
17524;SDS011;40431;52.198;9.902;2023-08-07T10:03:56;4.63;;;2.77;;
17524;SDS011;40431;52.198;9.902;2023-08-07T10:06:23;4.03;;;2.60;;
17524;SDS011;40431;52.198;9.902;2023-08-07T10:08:50;5.17;;;2.30;;
17524;SDS011;40431;52.198;9.902;2023-08-07T10:11:19;5.37;;;2.60;;
17524;SDS011;40431;52.198;9.902;2023-08-07T10:13:46;4.40;;;2.27;;
17524;SDS011;40431;52.198;9.902;2023-08-07T10:16:13;5.00;;;2.33;;
17524;SDS011;40431;52.198;9.902;2023-08-07T10:18:40;5.63;;;2.67;;
17524;SDS011;40431;52.198;9.902;2023-08-07T10:21:06;3.53;;;2.17;;
17524;SDS011;40431;52.198;9.902;2023-08-07T10:23:34;4.17;;;2.50;;
17524;SDS011;40431;52.198;9.902;2023-08-07T10:26:01;6.47;;;2.93;;
17524;SDS011;40431;52.198;9.902;2023-08-07T10:28:31;4.17;;;1.90;;
17524;SDS011;40431;52.198;9.902;2023-08-07T10:31:02;2.77;;;1.50;;
17524;SDS011;40431;52.198;9.902;2023-08-07T10:33:30;3.93;;;1.40;;
17524;SDS011;40431;52.198;9.902;2023-08-07T10:35:58;2.60;;;1.80;;
17524;SDS011;40431;52.198;9.902;2023-08-07T10:38:25;3.90;;;2.07;;
17524;SDS011;40431;52.198;9.902;2023-08-07T10:40:58;2.87;;;1.83;;
17524;SDS011;40431;52.198;9.902;2023-08-07T10:43:25;3.70;;;1.50;;
17524;SDS011;40431;52.198;9.902;2023-08-07T10:45:54;2.50;;;1.83;;
17524;SDS011;40431;52.198;9.902;2023-08-07T10:48:28;2.67;;;2.10;;
17524;SDS011;40431;52.198;9.902;2023-08-07T10:50:56;3.30;;;2.27;;
17524;SDS011;40431;52.198;9.902;2023-08-07T10:53:31;3.00;;;1.80;;
17524;SDS011;40431;52.198;9.902;2023-08-07T10:56:00;3.83;;;2.23;;
17524;SDS011;40431;52.198;9.902;2023-08-07T10:58:29;3.13;;;1.80;;
17524;SDS011;40431;52.198;9.902;2023-08-07T11:01:16;2.63;;;1.60;;
17524;SDS011;40431;52.198;9.902;2023-08-07T11:03:44;3.77;;;1.90;;
17524;SDS011;40431;52.198;9.902;2023-08-07T11:06:11;5.27;;;1.73;;
17524;SDS011;40431;52.198;9.902;2023-08-07T11:08:38;5.00;;;2.03;;
17524;SDS011;40431;52.198;9.902;2023-08-07T11:11:04;3.33;;;1.80;;
17524;SDS011;40431;52.198;9.902;2023-08-07T11:13:31;4.10;;;2.30;;
17524;SDS011;40431;52.198;9.902;2023-08-07T11:15:57;2.80;;;2.03;;
17524;SDS011;40431;52.198;9.902;2023-08-07T11:18:25;2.93;;;1.60;;
17524;SDS011;40431;52.198;9.902;2023-08-07T11:20:52;4.70;;;2.20;;
17524;SDS011;40431;52.198;9.902;2023-08-07T11:23:22;2.23;;;1.80;;
17524;SDS011;40431;52.198;9.902;2023-08-07T11:25:49;3.53;;;2.03;;
17524;SDS011;40431;52.198;9.902;2023-08-07T11:28:17;3.23;;;2.00;;
17524;SDS011;40431;52.198;9.902;2023-08-07T11:30:44;7.30;;;2.57;;
17524;SDS011;40431;52.198;9.902;2023-08-07T11:33:11;6.50;;;2.40;;
17524;SDS011;40431;52.198;9.902;2023-08-07T11:35:41;5.00;;;1.93;;
17524;SDS011;40431;52.198;9.902;2023-08-07T11:38:08;3.17;;;1.83;;
17524;SDS011;40431;52.198;9.902;2023-08-07T11:40:34;3.63;;;2.10;;
17524;SDS011;40431;52.198;9.902;2023-08-07T11:43:01;3.97;;;2.00;;
17524;SDS011;40431;52.198;9.902;2023-08-07T11:45:27;2.33;;;1.47;;
17524;SDS011;40431;52.198;9.902;2023-08-07T11:47:54;2.30;;;1.60;;
17524;SDS011;40431;52.198;9.902;2023-08-07T11:50:22;2.77;;;1.67;;
17524;SDS011;40431;52.198;9.902;2023-08-07T11:52:50;4.40;;;1.80;;
17524;SDS011;40431;52.198;9.902;2023-08-07T11:55:17;3.17;;;2.00;;
17524;SDS011;40431;52.198;9.902;2023-08-07T11:57:45;6.10;;;2.10;;
17524;SDS011;40431;52.198;9.902;2023-08-07T12:00:12;3.07;;;1.90;;
17524;SDS011;40431;52.198;9.902;2023-08-07T12:02:41;4.83;;;1.87;;
17524;SDS011;40431;52.198;9.902;2023-08-07T12:05:08;3.90;;;1.87;;
17524;SDS011;40431;52.198;9.902;2023-08-07T12:07:36;6.50;;;2.20;;
17524;SDS011;40431;52.198;9.902;2023-08-07T12:10:04;8.03;;;2.67;;
17524;SDS011;40431;52.198;9.902;2023-08-07T12:12:33;3.80;;;2.40;;
17524;SDS011;40431;52.198;9.902;2023-08-07T12:15:00;5.80;;;2.40;;
17524;SDS011;40431;52.198;9.902;2023-08-07T12:17:26;4.77;;;2.37;;
17524;SDS011;40431;52.198;9.902;2023-08-07T12:19:57;4.27;;;2.33;;
17524;SDS011;40431;52.198;9.902;2023-08-07T12:22:24;8.10;;;3.20;;
17524;SDS011;40431;52.198;9.902;2023-08-07T12:24:53;2.53;;;1.83;;
17524;SDS011;40431;52.198;9.902;2023-08-07T12:27:21;9.33;;;2.73;;
17524;SDS011;40431;52.198;9.902;2023-08-07T12:29:47;5.23;;;2.20;;
17524;SDS011;40431;52.198;9.902;2023-08-07T12:32:13;4.53;;;2.70;;
17524;SDS011;40431;52.198;9.902;2023-08-07T12:34:40;6.13;;;2.00;;
17524;SDS011;40431;52.198;9.902;2023-08-07T12:37:06;4.13;;;2.47;;
17524;SDS011;40431;52.198;9.902;2023-08-07T12:39:34;4.00;;;2.40;;
17524;SDS011;40431;52.198;9.902;2023-08-07T12:42:00;4.20;;;2.13;;
17524;SDS011;40431;52.198;9.902;2023-08-07T12:44:29;5.50;;;2.50;;
17524;SDS011;40431;52.198;9.902;2023-08-07T12:46:56;5.03;;;2.70;;
17524;SDS011;40431;52.198;9.902;2023-08-07T12:49:23;5.87;;;3.00;;
17524;SDS011;40431;52.198;9.902;2023-08-07T12:51:50;6.17;;;2.70;;
17524;SDS011;40431;52.198;9.902;2023-08-07T12:54:16;4.40;;;2.77;;
17524;SDS011;40431;52.198;9.902;2023-08-07T12:56:43;4.93;;;2.87;;
17524;SDS011;40431;52.198;9.902;2023-08-07T12:59:09;3.67;;;2.70;;
17524;SDS011;40431;52.198;9.902;2023-08-07T13:01:37;7.30;;;3.40;;
17524;SDS011;40431;52.198;9.902;2023-08-07T13:04:03;7.90;;;3.17;;
17524;SDS011;40431;52.198;9.902;2023-08-07T13:06:30;6.37;;;2.37;;
17524;SDS011;40431;52.198;9.902;2023-08-07T13:08:57;6.50;;;2.50;;
17524;SDS011;40431;52.198;9.902;2023-08-07T13:11:25;5.30;;;3.13;;
17524;SDS011;40431;52.198;9.902;2023-08-07T13:13:51;3.53;;;2.80;;
17524;SDS011;40431;52.198;9.902;2023-08-07T13:16:18;6.17;;;2.87;;
17524;SDS011;40431;52.198;9.902;2023-08-07T13:18:45;2.60;;;2.40;;
17524;SDS011;40431;52.198;9.902;2023-08-07T13:21:12;6.43;;;2.53;;
17524;SDS011;40431;52.198;9.902;2023-08-07T13:23:38;4.43;;;2.47;;
17524;SDS011;40431;52.198;9.902;2023-08-07T13:26:04;6.53;;;2.77;;
17524;SDS011;40431;52.198;9.902;2023-08-07T13:28:31;2.90;;;2.30;;
17524;SDS011;40431;52.198;9.902;2023-08-07T13:30:57;3.77;;;2.60;;
17524;SDS011;40431;52.198;9.902;2023-08-07T13:33:24;6.93;;;2.40;;
17524;SDS011;40431;52.198;9.902;2023-08-07T13:35:51;5.17;;;2.50;;
17524;SDS011;40431;52.198;9.902;2023-08-07T13:38:18;4.77;;;2.37;;
17524;SDS011;40431;52.198;9.902;2023-08-07T13:40:44;5.13;;;2.33;;
17524;SDS011;40431;52.198;9.902;2023-08-07T13:43:10;4.00;;;2.30;;
17524;SDS011;40431;52.198;9.902;2023-08-07T13:45:37;5.87;;;2.50;;
17524;SDS011;40431;52.198;9.902;2023-08-07T13:48:03;4.57;;;3.13;;
17524;SDS011;40431;52.198;9.902;2023-08-07T13:50:31;5.30;;;2.30;;
17524;SDS011;40431;52.198;9.902;2023-08-07T13:52:59;4.67;;;2.70;;
17524;SDS011;40431;52.198;9.902;2023-08-07T13:55:25;4.70;;;2.40;;
17524;SDS011;40431;52.198;9.902;2023-08-07T13:57:51;5.17;;;2.47;;
17524;SDS011;40431;52.198;9.902;2023-08-07T14:00:18;5.90;;;2.93;;
17524;SDS011;40431;52.198;9.902;2023-08-07T14:02:44;8.67;;;2.47;;
17524;SDS011;40431;52.198;9.902;2023-08-07T14:05:11;4.37;;;2.70;;
17524;SDS011;40431;52.198;9.902;2023-08-07T14:07:37;7.33;;;2.60;;
17524;SDS011;40431;52.198;9.902;2023-08-07T14:10:05;5.47;;;2.80;;
17524;SDS011;40431;52.198;9.902;2023-08-07T14:12:33;3.00;;;2.50;;
17524;SDS011;40431;52.198;9.902;2023-08-07T14:14:59;7.27;;;3.03;;
17524;SDS011;40431;52.198;9.902;2023-08-07T14:17:25;5.97;;;2.70;;
17524;SDS011;40431;52.198;9.902;2023-08-07T14:19:52;7.17;;;2.80;;
17524;SDS011;40431;52.198;9.902;2023-08-07T14:22:18;9.17;;;2.47;;
17524;SDS011;40431;52.198;9.902;2023-08-07T14:24:44;5.73;;;2.27;;
17524;SDS011;40431;52.198;9.902;2023-08-07T14:27:12;4.60;;;1.90;;
17524;SDS011;40431;52.198;9.902;2023-08-07T14:29:38;4.13;;;2.27;;
17524;SDS011;40431;52.198;9.902;2023-08-07T14:32:05;3.67;;;2.30;;
17524;SDS011;40431;52.198;9.902;2023-08-07T14:34:31;3.07;;;2.00;;
17524;SDS011;40431;52.198;9.902;2023-08-07T14:36:58;3.13;;;1.80;;
17524;SDS011;40431;52.198;9.902;2023-08-07T14:39:24;3.53;;;1.80;;
17524;SDS011;40431;52.198;9.902;2023-08-07T14:41:51;6.20;;;2.63;;
17524;SDS011;40431;52.198;9.902;2023-08-07T14:44:21;4.03;;;2.10;;
17524;SDS011;40431;52.198;9.902;2023-08-07T14:46:47;3.77;;;2.23;;
17524;SDS011;40431;52.198;9.902;2023-08-07T14:49:14;8.60;;;2.43;;